createdAt,value
2018-06-29T00:00:50.722Z,101332.00
2018-06-29T00:03:20.413Z,101336.00
2018-06-29T00:05:49.587Z,101329.00
2018-06-29T00:08:18.766Z,101328.00
2018-06-29T00:10:47.949Z,101327.00
2018-06-29T00:13:17.171Z,101321.00
2018-06-29T00:15:46.606Z,101316.00
2018-06-29T00:18:15.831Z,101309.00
2018-06-29T00:20:45.043Z,101308.00
2018-06-29T00:23:14.285Z,101307.00
2018-06-29T00:25:43.456Z,101312.00
2018-06-29T00:28:12.656Z,101308.00
2018-06-29T00:30:41.938Z,101306.00
2018-06-29T00:33:11.138Z,101312.00
2018-06-29T00:35:40.354Z,101307.00
2018-06-29T00:38:09.558Z,101318.00
2018-06-29T00:40:39.035Z,101315.00
2018-06-29T00:43:08.334Z,101309.00
2018-06-29T00:45:37.638Z,101315.00
2018-06-29T00:48:06.729Z,101315.00
2018-06-29T00:50:35.949Z,101314.00
2018-06-29T00:53:05.395Z,101314.00
2018-06-29T00:55:34.607Z,101314.00
2018-06-29T00:58:03.818Z,101310.00
2018-06-29T01:00:33.558Z,101304.00
2018-06-29T01:03:02.759Z,101315.00
2018-06-29T01:05:31.938Z,101308.00
2018-06-29T01:08:01.602Z,101307.00
2018-06-29T01:10:30.811Z,101304.00
2018-06-29T01:13:00.021Z,101303.00
2018-06-29T01:15:29.251Z,101302.00
2018-06-29T01:17:58.421Z,101304.00
2018-06-29T01:20:27.671Z,101306.00
2018-06-29T01:22:56.968Z,101320.00
2018-06-29T01:25:26.186Z,101314.00
2018-06-29T01:27:55.374Z,101317.00
2018-06-29T01:30:24.623Z,101306.00
2018-06-29T01:32:53.834Z,101302.00
2018-06-29T01:35:23.179Z,101304.00
2018-06-29T01:37:52.430Z,101306.00
2018-06-29T01:40:21.700Z,101297.00
2018-06-29T01:42:50.906Z,101303.00
2018-06-29T01:45:20.190Z,101293.00
2018-06-29T01:47:49.410Z,101295.00
2018-06-29T01:50:18.590Z,101295.00
2018-06-29T01:52:47.774Z,101298.00
2018-06-29T01:55:16.913Z,101303.00
2018-06-29T01:57:46.074Z,101294.00
2018-06-29T02:00:15.275Z,101299.00
2018-06-29T02:02:44.404Z,101298.00
2018-06-29T02:05:13.641Z,101299.00
2018-06-29T02:07:42.854Z,101297.00
2018-06-29T02:10:12.046Z,101302.00
2018-06-29T02:12:41.299Z,101300.00
2018-06-29T02:15:10.475Z,101301.00
2018-06-29T02:17:39.784Z,101311.00
2018-06-29T02:20:08.953Z,101307.00
2018-06-29T02:22:38.211Z,101304.00
2018-06-29T02:25:07.506Z,101302.00
2018-06-29T02:27:36.731Z,101300.00
2018-06-29T02:30:06.536Z,101298.00
2018-06-29T02:32:35.890Z,101299.00
2018-06-29T02:35:05.206Z,101297.00
2018-06-29T02:37:34.548Z,101305.00
2018-06-29T02:40:03.946Z,101298.00
2018-06-29T02:42:33.135Z,101294.00
2018-06-29T02:45:02.343Z,101306.00
2018-06-29T02:47:31.492Z,101305.00
2018-06-29T02:50:00.685Z,101300.00
2018-06-29T02:52:30.093Z,101293.00
2018-06-29T02:54:59.254Z,101292.00
2018-06-29T02:57:28.386Z,101288.00
2018-06-29T02:59:57.663Z,101293.00
2018-06-29T03:02:26.946Z,101303.00
2018-06-29T03:04:56.181Z,101305.00
2018-06-29T03:07:25.414Z,101306.00
2018-06-29T03:09:54.774Z,101303.00
2018-06-29T03:12:23.994Z,101300.00
2018-06-29T03:14:53.615Z,101306.00
2018-06-29T03:17:22.806Z,101305.00
2018-06-29T03:19:52.038Z,101297.00
2018-06-29T03:22:21.206Z,101300.00
2018-06-29T03:24:50.450Z,101296.00
2018-06-29T03:27:19.618Z,101300.00
2018-06-29T03:29:48.814Z,101292.00
2018-06-29T03:32:18.189Z,101296.00
2018-06-29T03:34:47.407Z,101296.00
2018-06-29T03:37:16.806Z,101296.00
2018-06-29T03:39:46.445Z,101295.00
2018-06-29T03:42:15.572Z,101300.00
2018-06-29T03:44:44.798Z,101292.00
2018-06-29T03:47:14.035Z,101289.00
2018-06-29T03:49:43.287Z,101290.00
2018-06-29T03:52:12.499Z,101289.00
2018-06-29T03:54:42.002Z,101285.00
2018-06-29T03:57:11.261Z,101284.00
2018-06-29T03:59:40.443Z,101283.00
2018-06-29T04:02:09.754Z,101241.00
2018-06-29T04:04:39.446Z,101277.00
2018-06-29T04:07:08.630Z,101284.00
2018-06-29T04:09:37.815Z,101285.00
2018-06-29T04:12:07.014Z,101279.00
2018-06-29T04:14:36.418Z,101280.00
2018-06-29T04:17:05.770Z,101281.00
2018-06-29T04:19:35.038Z,101283.00
2018-06-29T04:22:04.282Z,101280.00
2018-06-29T04:24:33.485Z,101274.00
2018-06-29T04:27:02.695Z,101284.00
2018-06-29T04:29:31.931Z,101283.00
2018-06-29T04:32:01.146Z,101276.00
2018-06-29T04:34:30.282Z,101273.00
2018-06-29T04:36:59.425Z,101266.00
2018-06-29T04:39:28.846Z,101271.00
2018-06-29T04:41:58.025Z,101282.00
2018-06-29T04:44:27.218Z,101274.00
2018-06-29T04:46:56.589Z,101283.00
2018-06-29T04:49:25.917Z,101283.00
2018-06-29T04:51:55.084Z,101274.00
2018-06-29T04:54:24.394Z,101272.00
2018-06-29T04:56:53.602Z,101268.00
2018-06-29T04:59:22.850Z,101268.00
2018-06-29T05:01:52.154Z,101264.00
2018-06-29T05:04:21.322Z,101272.00
2018-06-29T05:06:50.507Z,101273.00
2018-06-29T05:09:19.714Z,101261.00
2018-06-29T05:11:48.850Z,101262.00
2018-06-29T05:14:18.214Z,101263.00
2018-06-29T05:16:47.403Z,101258.00
2018-06-29T05:19:16.660Z,101265.00
2018-06-29T05:21:45.938Z,101257.00
2018-06-29T05:24:15.155Z,101261.00
2018-06-29T05:26:44.427Z,101263.00
2018-06-29T05:29:13.638Z,101265.00
2018-06-29T05:31:42.819Z,101265.00
2018-06-29T05:34:12.214Z,101267.00
2018-06-29T05:36:41.430Z,101265.00
2018-06-29T05:39:11.190Z,101258.00
2018-06-29T05:41:40.406Z,101269.00
2018-06-29T05:44:09.691Z,101263.00
2018-06-29T05:46:38.898Z,101271.00
2018-06-29T05:49:09.677Z,101272.00
2018-06-29T05:51:39.019Z,101266.00
2018-06-29T05:54:08.218Z,101266.00
2018-06-29T05:56:37.445Z,101273.00
2018-06-29T05:59:06.727Z,101272.00
2018-06-29T06:01:35.943Z,101267.00
2018-06-29T06:04:05.157Z,101264.00
2018-06-29T06:06:34.727Z,101266.00
2018-06-29T06:09:05.935Z,101263.00
2018-06-29T06:11:35.298Z,101264.00
2018-06-29T06:14:04.609Z,101264.00
2018-06-29T06:16:33.770Z,101253.00
2018-06-29T06:19:20.087Z,101263.00
2018-06-29T06:21:49.286Z,101258.00
2018-06-29T06:24:18.542Z,101252.00
2018-06-29T06:26:48.050Z,101256.00
2018-06-29T06:29:17.190Z,101259.00
2018-06-29T06:31:46.418Z,101255.00
2018-06-29T06:34:15.612Z,101249.00
2018-06-29T06:36:44.974Z,101255.00
2018-06-29T06:39:14.160Z,101252.00
2018-06-29T06:41:43.597Z,101257.00
2018-06-29T06:44:13.082Z,101260.00
2018-06-29T06:46:42.250Z,101248.00
2018-06-29T06:49:11.446Z,101254.00
2018-06-29T06:51:40.663Z,101246.00
2018-06-29T06:54:09.895Z,101235.00
2018-06-29T06:56:39.327Z,101235.00
2018-06-29T06:59:08.634Z,101233.00
2018-06-29T07:01:37.824Z,101236.00
2018-06-29T07:04:07.030Z,101235.00
2018-06-29T07:06:36.399Z,101232.00
2018-06-29T07:09:10.282Z,101225.00
2018-06-29T07:11:39.461Z,101221.00
2018-06-29T07:14:08.691Z,101224.00
2018-06-29T07:16:37.981Z,101221.00
2018-06-29T07:19:07.689Z,101223.00
2018-06-29T07:21:37.346Z,101226.00
2018-06-29T07:24:06.807Z,101228.00
2018-06-29T07:26:36.690Z,101220.00
2018-06-29T07:29:05.998Z,101216.00
2018-06-29T07:31:35.438Z,101226.00
2018-06-29T07:34:04.726Z,101218.00
2018-06-29T07:36:33.935Z,101222.00
2018-06-29T07:39:03.145Z,101214.00
2018-06-29T07:41:32.503Z,101212.00
2018-06-29T07:44:01.756Z,101207.00
2018-06-29T07:46:30.963Z,101200.00
2018-06-29T07:49:00.649Z,101205.00
2018-06-29T07:51:29.839Z,101206.00
2018-06-29T07:53:59.074Z,101220.00
2018-06-29T07:56:28.430Z,101209.00
2018-06-29T07:58:57.598Z,101210.00
2018-06-29T08:01:26.824Z,101210.00
2018-06-29T08:03:56.082Z,101200.00
2018-06-29T08:06:25.198Z,101210.00
2018-06-29T08:08:54.467Z,101207.00
2018-06-29T08:11:23.694Z,101200.00
2018-06-29T08:13:52.915Z,101199.00
2018-06-29T08:16:22.182Z,101199.00
2018-06-29T08:18:51.342Z,101193.00
2018-06-29T08:21:20.624Z,101186.00
2018-06-29T08:23:49.794Z,101185.00
2018-06-29T08:26:25.954Z,101187.00
2018-06-29T08:28:55.251Z,101187.00
2018-06-29T08:31:24.626Z,101182.00
2018-06-29T08:33:53.841Z,101174.00
2018-06-29T08:36:23.143Z,101178.00
2018-06-29T08:38:52.319Z,101177.00
2018-06-29T08:41:21.683Z,101177.00
2018-06-29T08:43:51.083Z,101173.00
2018-06-29T08:46:20.391Z,101142.00
2018-06-29T08:48:49.602Z,101187.00
2018-06-29T08:51:18.757Z,101186.00
2018-06-29T08:53:47.966Z,101182.00
2018-06-29T08:56:17.551Z,101173.00
2018-06-29T08:58:46.901Z,101172.00
2018-06-29T09:01:16.114Z,101176.00
2018-06-29T09:03:45.293Z,101175.00
2018-06-29T09:06:14.491Z,101181.00
2018-06-29T09:08:43.823Z,101170.00
2018-06-29T09:11:14.146Z,101164.00
2018-06-29T09:13:43.372Z,101163.00
2018-06-29T09:16:12.655Z,101167.00
2018-06-29T09:18:41.866Z,101161.00
2018-06-29T09:21:11.107Z,101163.00
2018-06-29T09:23:40.476Z,101153.00
2018-06-29T09:26:09.627Z,101163.00
2018-06-29T09:28:38.794Z,101156.00
2018-06-29T09:31:08.067Z,101149.00
2018-06-29T09:33:37.288Z,101141.00
2018-06-29T09:36:06.495Z,101135.00
2018-06-29T09:38:35.923Z,101135.00
2018-06-29T09:41:05.097Z,101133.00
2018-06-29T09:43:34.286Z,101129.00
2018-06-29T09:46:03.622Z,101137.00
2018-06-29T09:48:32.890Z,101131.00
2018-06-29T09:51:02.110Z,101124.00
2018-06-29T09:53:31.291Z,101135.00
2018-06-29T09:56:00.889Z,101131.00
2018-06-29T09:58:30.046Z,101118.00
2018-06-29T10:00:59.284Z,101116.00
2018-06-29T10:03:28.554Z,101117.00
2018-06-29T10:05:57.802Z,101119.00
2018-06-29T10:08:26.942Z,101112.00
2018-06-29T10:10:56.424Z,101114.00
2018-06-29T10:13:25.626Z,101106.00
2018-06-29T10:15:54.815Z,101108.00
2018-06-29T10:18:24.039Z,101105.00
2018-06-29T10:20:53.259Z,101113.00
2018-06-29T10:23:22.434Z,101104.00
2018-06-29T10:25:51.594Z,101096.00
2018-06-29T10:28:20.808Z,101109.00
2018-06-29T10:30:50.019Z,101100.00
2018-06-29T10:33:19.242Z,101095.00
2018-06-29T10:35:48.592Z,101103.00
2018-06-29T10:38:17.774Z,101092.00
2018-06-29T10:40:46.979Z,101094.00
2018-06-29T10:43:16.294Z,101102.00
2018-06-29T10:45:45.505Z,101100.00
2018-06-29T10:48:14.926Z,101086.00
2018-06-29T10:50:44.116Z,101094.00
2018-06-29T10:53:13.423Z,101091.00
2018-06-29T10:55:42.754Z,101087.00
2018-06-29T10:58:12.058Z,101091.00
2018-06-29T11:00:41.370Z,101083.00
2018-06-29T11:03:10.550Z,101091.00
2018-06-29T11:05:39.776Z,101085.00
2018-06-29T11:08:09.376Z,101072.00
2018-06-29T11:10:38.543Z,101069.00
2018-06-29T11:13:07.727Z,101084.00
2018-06-29T11:15:36.937Z,101074.00
2018-06-29T11:18:06.222Z,101082.00
2018-06-29T11:20:35.907Z,101076.00
2018-06-29T11:23:05.114Z,101069.00
2018-06-29T11:25:34.375Z,101071.00
2018-06-29T11:28:03.632Z,101064.00
2018-06-29T11:30:32.943Z,101072.00
2018-06-29T11:33:02.127Z,101072.00
2018-06-29T11:35:31.402Z,101074.00
2018-06-29T11:38:00.594Z,101070.00
2018-06-29T11:40:29.835Z,101064.00
2018-06-29T11:42:59.425Z,101057.00
2018-06-29T11:45:28.639Z,101052.00
2018-06-29T11:47:57.871Z,101051.00
2018-06-29T11:50:27.070Z,101047.00
2018-06-29T11:52:56.260Z,101045.00
2018-06-29T11:55:25.885Z,101046.00
2018-06-29T11:57:55.106Z,101043.00
2018-06-29T12:00:24.255Z,101034.00
2018-06-29T12:02:53.539Z,101038.00
2018-06-29T12:05:22.786Z,101035.00
2018-06-29T12:07:52.370Z,101031.00
2018-06-29T12:10:21.584Z,101031.00
2018-06-29T12:12:50.865Z,101038.00
2018-06-29T12:15:20.154Z,101042.00
2018-06-29T12:17:49.579Z,101036.00
2018-06-29T12:20:18.890Z,101028.00
2018-06-29T12:22:48.096Z,101017.00
2018-06-29T12:25:17.279Z,101016.00
2018-06-29T12:27:46.673Z,101014.00
2018-06-29T12:30:15.846Z,101017.00
2018-06-29T12:32:45.174Z,101018.00
2018-06-29T12:35:14.379Z,101004.00
2018-06-29T12:37:43.615Z,101009.00
2018-06-29T12:40:12.787Z,101011.00
2018-06-29T12:42:42.015Z,101014.00
2018-06-29T12:45:11.203Z,101006.00
2018-06-29T12:47:40.790Z,100996.00
2018-06-29T12:50:09.962Z,100999.00
2018-06-29T12:52:39.178Z,100993.00
2018-06-29T12:55:08.419Z,100991.00
2018-06-29T12:57:37.796Z,100985.00
2018-06-29T13:00:07.591Z,100990.00
2018-06-29T13:02:36.834Z,100996.00
2018-06-29T13:05:06.290Z,100979.00
2018-06-29T13:07:35.506Z,100976.00
2018-06-29T13:10:04.691Z,100977.00
2018-06-29T13:12:33.907Z,100969.00
2018-06-29T13:15:03.214Z,100953.00
2018-06-29T13:17:32.428Z,100962.00
2018-06-29T13:20:01.590Z,100953.00
2018-06-29T13:22:30.854Z,100955.00
2018-06-29T13:25:00.147Z,100953.00
2018-06-29T13:27:29.338Z,100956.00
2018-06-29T13:29:58.611Z,100949.00
2018-06-29T13:32:27.866Z,100956.00
2018-06-29T13:34:57.104Z,100950.00
2018-06-29T13:37:26.417Z,100952.00
2018-06-29T13:39:55.658Z,100948.00
2018-06-29T13:42:24.829Z,100940.00
2018-06-29T13:44:54.206Z,100942.00
2018-06-29T13:47:23.424Z,100935.00
2018-06-29T13:49:53.059Z,100950.00
2018-06-29T13:52:22.256Z,100938.00
2018-06-29T13:54:51.542Z,100940.00
2018-06-29T13:57:20.724Z,100934.00
2018-06-29T13:59:49.955Z,100935.00
2018-06-29T14:02:19.118Z,100934.00
2018-06-29T14:04:48.435Z,100931.00
2018-06-29T14:07:17.574Z,100920.00
2018-06-29T14:09:46.781Z,100929.00
2018-06-29T14:12:15.989Z,100925.00
2018-06-29T14:14:45.397Z,100921.00
2018-06-29T14:17:14.635Z,100919.00
2018-06-29T14:19:43.895Z,100915.00
2018-06-29T14:22:13.109Z,100907.00
2018-06-29T14:24:42.279Z,100902.00
2018-06-29T14:27:11.423Z,100912.00
2018-06-29T14:29:41.086Z,100907.00
2018-06-29T14:32:10.281Z,100904.00
2018-06-29T14:34:39.555Z,100902.00
2018-06-29T14:37:08.787Z,100905.00
2018-06-29T14:39:37.986Z,100903.00
2018-06-29T14:42:07.164Z,100896.00
2018-06-29T14:44:36.758Z,100907.00
2018-06-29T14:47:06.076Z,100900.00
2018-06-29T14:49:35.367Z,100864.00
2018-06-29T14:52:04.586Z,100895.00
2018-06-29T14:54:33.807Z,100879.00
2018-06-29T14:57:02.991Z,100880.00
2018-06-29T14:59:32.230Z,100879.00
2018-06-29T15:02:01.726Z,100887.00
2018-06-29T15:04:31.015Z,100889.00
2018-06-29T15:07:00.250Z,100877.00
2018-06-29T15:09:29.459Z,100882.00
2018-06-29T15:11:58.797Z,100869.00
2018-06-29T15:14:27.974Z,100876.00
2018-06-29T15:16:57.124Z,100866.00
2018-06-29T15:19:26.358Z,100867.00
2018-06-29T15:21:55.662Z,100858.00
2018-06-29T15:24:24.838Z,100863.00
2018-06-29T15:26:54.302Z,100857.00
2018-06-29T15:29:23.530Z,100853.00
2018-06-29T15:31:52.946Z,100854.00
2018-06-29T15:34:22.146Z,100854.00
2018-06-29T15:36:51.322Z,100860.00
2018-06-29T15:39:20.638Z,100855.00
2018-06-29T15:41:49.870Z,100855.00
2018-06-29T15:44:19.278Z,100853.00
2018-06-29T15:46:48.610Z,100865.00
2018-06-29T15:49:17.773Z,100854.00
2018-06-29T15:51:47.043Z,100854.00
2018-06-29T15:54:16.198Z,100854.00
2018-06-29T15:56:45.398Z,100851.00
2018-06-29T15:59:14.651Z,100859.00
2018-06-29T16:01:43.786Z,100854.00
2018-06-29T16:04:13.031Z,100856.00
2018-06-29T16:06:42.500Z,100862.00
2018-06-29T16:09:11.758Z,100850.00
2018-06-29T16:11:41.010Z,100849.00
2018-06-29T16:14:10.302Z,100839.00
2018-06-29T16:16:39.547Z,100847.00
2018-06-29T16:19:08.759Z,100853.00
2018-06-29T16:21:38.055Z,100849.00
2018-06-29T16:24:07.379Z,100845.00
2018-06-29T16:26:36.574Z,100832.00
2018-06-29T16:29:05.838Z,100849.00
2018-06-29T16:31:34.983Z,100839.00
2018-06-29T16:34:04.246Z,100831.00
2018-06-29T16:36:33.446Z,100844.00
2018-06-29T16:39:02.750Z,100848.00
2018-06-29T16:41:32.254Z,100853.00
2018-06-29T16:44:01.486Z,100864.00
2018-06-29T16:46:30.622Z,100857.00
2018-06-29T16:48:59.855Z,100849.00
2018-06-29T16:51:29.030Z,100853.00
2018-06-29T16:53:58.203Z,100846.00
2018-06-29T16:56:27.522Z,100854.00
2018-06-29T16:58:56.806Z,100844.00
2018-06-29T17:01:26.019Z,100847.00
2018-06-29T17:03:55.647Z,100850.00
2018-06-29T17:06:24.827Z,100846.00
2018-06-29T17:08:54.093Z,100850.00
2018-06-29T17:11:23.504Z,100846.00
2018-06-29T17:13:52.750Z,100844.00
2018-06-29T17:16:21.939Z,100846.00
2018-06-29T17:18:51.284Z,100844.00
2018-06-29T17:21:20.331Z,100846.00
2018-06-29T17:23:49.698Z,100854.00
2018-06-29T17:26:18.947Z,100844.00
2018-06-29T17:28:48.122Z,100852.00
2018-06-29T17:31:17.634Z,100857.00
2018-06-29T17:33:47.204Z,100849.00
2018-06-29T17:36:16.243Z,100847.00
2018-06-29T17:38:45.646Z,100850.00
2018-06-29T17:41:14.951Z,100853.00
2018-06-29T17:43:44.115Z,100844.00
2018-06-29T17:46:13.600Z,100848.00
2018-06-29T17:48:42.946Z,100844.00
2018-06-29T17:51:12.515Z,100847.00
2018-06-29T17:53:41.715Z,100845.00
2018-06-29T17:56:10.902Z,100848.00
2018-06-29T17:58:40.111Z,100857.00
2018-06-29T18:01:09.300Z,100849.00
2018-06-29T18:03:38.526Z,100851.00
2018-06-29T18:06:07.741Z,100851.00
2018-06-29T18:08:36.906Z,100853.00
2018-06-29T18:11:06.173Z,100855.00
2018-06-29T18:13:35.435Z,100851.00
2018-06-29T18:16:04.681Z,100847.00
2018-06-29T18:18:33.958Z,100855.00
2018-06-29T18:21:03.227Z,100854.00
2018-06-29T18:23:32.741Z,100853.00
2018-06-29T18:26:02.024Z,100857.00
2018-06-29T18:28:31.209Z,100862.00
2018-06-29T18:31:00.391Z,100850.00
2018-06-29T18:33:29.559Z,100866.00
2018-06-29T18:35:58.744Z,100861.00
2018-06-29T18:38:27.955Z,100858.00
2018-06-29T18:40:57.147Z,100857.00
2018-06-29T18:43:26.415Z,100865.00
2018-06-29T18:45:55.602Z,100857.00
2018-06-29T18:48:24.877Z,100854.00
2018-06-29T18:50:54.158Z,100855.00
2018-06-29T18:53:23.438Z,100853.00
2018-06-29T18:55:52.632Z,100860.00
2018-06-29T18:58:21.824Z,100856.00
2018-06-29T19:00:51.039Z,100862.00
2018-06-29T19:03:20.264Z,100862.00
2018-06-29T19:05:49.650Z,100865.00
2018-06-29T19:08:18.862Z,100858.00
2018-06-29T19:10:48.066Z,100867.00
2018-06-29T19:13:17.354Z,100861.00
2018-06-29T19:15:46.535Z,100863.00
2018-06-29T19:18:16.254Z,100861.00
2018-06-29T19:20:45.523Z,100868.00
2018-06-29T19:23:14.645Z,100873.00
2018-06-29T19:25:43.842Z,100875.00
2018-06-29T19:28:13.398Z,100874.00
2018-06-29T19:30:42.788Z,100878.00
2018-06-29T19:33:11.964Z,100881.00
2018-06-29T19:35:41.197Z,100878.00
2018-06-29T19:38:10.579Z,100879.00
2018-06-29T19:40:39.771Z,100881.00
2018-06-29T19:43:08.938Z,100879.00
2018-06-29T19:45:38.262Z,100885.00
2018-06-29T19:48:07.415Z,100888.00
2018-06-29T19:50:36.615Z,100888.00
2018-06-29T19:53:06.310Z,100892.00
2018-06-29T19:55:35.496Z,100897.00
2018-06-29T19:58:04.752Z,100901.00
2018-06-29T20:00:33.946Z,100896.00
2018-06-29T20:03:03.159Z,100910.00
2018-06-29T20:05:32.324Z,100902.00
2018-06-29T20:08:01.583Z,100915.00
2018-06-29T20:10:30.815Z,100910.00
2018-06-29T20:13:00.028Z,100909.00
2018-06-29T20:15:29.238Z,100911.00
2018-06-29T20:17:58.570Z,100906.00
2018-06-29T20:20:27.949Z,100910.00
2018-06-29T20:22:57.008Z,100914.00
2018-06-29T20:25:26.476Z,100922.00
2018-06-29T20:27:55.798Z,100918.00
2018-06-29T20:30:25.071Z,100914.00
2018-06-29T20:32:54.782Z,100925.00
2018-06-29T20:35:23.927Z,100924.00
2018-06-29T20:37:53.096Z,100919.00
2018-06-29T20:40:22.262Z,100929.00
2018-06-29T20:42:51.604Z,100930.00
2018-06-29T20:45:20.830Z,100924.00
2018-06-29T20:47:50.035Z,100929.00
2018-06-29T20:50:19.359Z,100940.00
2018-06-29T20:52:48.559Z,100935.00
2018-06-29T20:55:17.847Z,100935.00
2018-06-29T20:57:47.122Z,100936.00
2018-06-29T21:00:16.782Z,100938.00
2018-06-29T21:02:46.058Z,100929.00
2018-06-29T21:05:16.562Z,100936.00
2018-06-29T21:07:45.807Z,100940.00
2018-06-29T21:10:15.026Z,100940.00
2018-06-29T21:12:44.682Z,100947.00
2018-06-29T21:15:13.894Z,100952.00
2018-06-29T21:17:43.182Z,100945.00
2018-06-29T21:20:12.730Z,100946.00
2018-06-29T21:22:42.202Z,100943.00
2018-06-29T21:25:11.487Z,100952.00
2018-06-29T21:27:40.663Z,100943.00
2018-06-29T21:30:09.875Z,100942.00
2018-06-29T21:32:39.202Z,100952.00
2018-06-29T21:35:08.446Z,100954.00
2018-06-29T21:37:37.650Z,100952.00
2018-06-29T21:40:06.851Z,100952.00
2018-06-29T21:42:36.102Z,100961.00
2018-06-29T21:45:05.334Z,100957.00
2018-06-29T21:47:34.535Z,100967.00
2018-06-29T21:50:03.802Z,100958.00
2018-06-29T21:52:33.029Z,100963.00
2018-06-29T21:55:02.260Z,100966.00
2018-06-29T21:57:31.461Z,100958.00
2018-06-29T22:00:00.692Z,100962.00
2018-06-29T22:02:29.861Z,100964.00
2018-06-29T22:04:59.223Z,100959.00
2018-06-29T22:07:28.451Z,100963.00
2018-06-29T22:09:57.618Z,100961.00
2018-06-29T22:12:26.811Z,100972.00
2018-06-29T22:14:56.190Z,100963.00
2018-06-29T22:17:25.350Z,100972.00
2018-06-29T22:19:54.516Z,100977.00
2018-06-29T22:22:23.694Z,100970.00
2018-06-29T22:24:52.918Z,100970.00
2018-06-29T22:27:22.180Z,100968.00
2018-06-29T22:29:51.405Z,100980.00
2018-06-29T22:32:20.629Z,100967.00
2018-06-29T22:34:49.842Z,100971.00
2018-06-29T22:37:19.031Z,100966.00
2018-06-29T22:39:48.279Z,100972.00
2018-06-29T22:42:17.452Z,100971.00
2018-06-29T22:44:46.625Z,100970.00
2018-06-29T22:47:16.258Z,100971.00
2018-06-29T22:49:45.442Z,100974.00
2018-06-29T22:52:14.910Z,100962.00
2018-06-29T22:54:45.390Z,100967.00
2018-06-29T22:57:14.629Z,100977.00
2018-06-29T22:59:43.890Z,100973.00
2018-06-29T23:02:13.131Z,100974.00
2018-06-29T23:04:42.366Z,100977.00
2018-06-29T23:07:11.622Z,100969.00
2018-06-29T23:09:40.822Z,100969.00
2018-06-29T23:12:10.507Z,100978.00
2018-06-29T23:14:39.744Z,100975.00
2018-06-29T23:17:08.929Z,100970.00
2018-06-29T23:19:38.530Z,100977.00
2018-06-29T23:22:07.919Z,100978.00
2018-06-29T23:24:37.513Z,100975.00
2018-06-29T23:27:06.791Z,100981.00
2018-06-29T23:29:36.078Z,100975.00
2018-06-29T23:32:05.252Z,100974.00
2018-06-29T23:34:34.486Z,100972.00
2018-06-29T23:37:03.735Z,100971.00
2018-06-29T23:39:33.207Z,100963.00
2018-06-29T23:42:02.477Z,100967.00
2018-06-29T23:44:31.833Z,100958.00
2018-06-29T23:47:00.992Z,100965.00
2018-06-29T23:49:30.182Z,100967.00
2018-06-29T23:52:00.428Z,100967.00
2018-06-29T23:54:29.777Z,100963.00
2018-06-29T23:56:59.066Z,100962.00
2018-06-29T23:59:28.511Z,100968.00
